»·PEaware :: N4870G KDEN-KSAF

N4870G :: KDEN-KSAF

FLIGHT INFORMATION

Flight Status: Arrived
Operator: Privately registered:
United States
More flights under this callsign
Pilot: Doug H. (19585)
Aircraft: PIPER PA-30 TWIN COMANCHE
(PA30)
More flights by this aircraft type
Origin: KDEN Denver Intl
United States
Destination: KSAF Santa Fe Mun
United States
More flights between these airports :: More routes between these airports
Route: +
File this flight plan on PilotEdge
Remarks: FF
Altitude:
(Current/Filed)
11,500ft
Speed:
(Current/Filed)
0kts
Departed: 11-Nov-19 03:52 PM
Arrived: 11-Nov-19 04:53 PM
Distance/Time
Traveled:
263nm/1:01
Distance/Time
To Go:
Arrived

Flight Plot

Page will automatically refresh every two minutes.

Flight plan parsing failed; only flown route is shown


Map Options




Map Legend


Flown Route
Filed Route
Departure Airport
Arrival Airport
Navaid (VOR, NDB)
Fix

Horizontal Profiles

Position Reports

Time Latitude Longitude Heading Altitude Ground
Speed
11-Nov-19 15:40 39.838290 -104.665436 1 5437ft 0kts
11-Nov-19 15:41 39.838290 -104.665436 1 5437ft 0kts
11-Nov-19 15:42 39.838290 -104.665436 1 5437ft 0kts
11-Nov-19 15:43 39.839814 -104.663786 23 5437ft 19kts
11-Nov-19 15:44 39.843879 -104.662545 1 5437ft 14kts
11-Nov-19 15:45 39.848381 -104.662448 357 5437ft 12kts
11-Nov-19 15:47 39.853531 -104.662409 0 5437ft 25kts
11-Nov-19 15:48 39.859909 -104.662319 0 5437ft 21kts
11-Nov-19 15:49 39.861079 -104.661665 87 5437ft 0kts
11-Nov-19 15:50 39.861079 -104.661664 87 5437ft 0kts
11-Nov-19 15:51 39.860976 -104.660422 126 5437ft 19kts
11-Nov-19 15:52 39.838797 -104.658105 148 5825ft 110kts
11-Nov-19 15:53 39.813992 -104.634257 139 6818ft 114kts
11-Nov-19 15:54 39.786583 -104.608008 142 7413ft 140kts
11-Nov-19 15:55 39.751768 -104.576237 144 7516ft 160kts
11-Nov-19 15:56 39.708106 -104.567270 179 7521ft 162kts
11-Nov-19 15:57 39.663228 -104.563805 178 7577ft 161kts
11-Nov-19 15:58 39.618595 -104.560037 180 7768ft 153kts
11-Nov-19 15:59 39.577070 -104.555781 174 8216ft 148kts
11-Nov-19 16:00 39.536301 -104.549269 180 8675ft 147kts
11-Nov-19 16:01 39.495467 -104.545080 180 9253ft 149kts
11-Nov-19 16:02 39.453557 -104.541075 181 9862ft 153kts
11-Nov-19 16:03 39.410459 -104.537010 181 10445ft 157kts
11-Nov-19 16:04 39.366435 -104.532872 181 10986ft 161kts
11-Nov-19 16:05 39.321459 -104.528641 181 11486ft 165kts
11-Nov-19 16:06 39.272652 -104.524117 181 11530ft 183kts
11-Nov-19 16:06 39.229329 -104.520030 181 11526ft 189kts
11-Nov-19 16:07 39.176705 -104.515106 181 11524ft 190kts
11-Nov-19 16:09 38.938237 -104.493161 178 11539ft 189kts
11-Nov-19 16:09 38.763499 -104.476813 176 11518ft 186kts
11-Nov-19 16:10 38.556916 -104.457865 176 11577ft 185kts
11-Nov-19 16:12 38.316246 -104.435881 176 11608ft 186kts
11-Nov-19 16:12 38.143520 -104.420201 176 11612ft 187kts
11-Nov-19 16:13 37.936309 -104.401492 176 11583ft 188kts
11-Nov-19 16:14 37.727094 -104.382695 174 11507ft 186kts
11-Nov-19 16:15 37.521326 -104.364229 175 11510ft 185kts
11-Nov-19 16:16 37.449907 -104.357877 175 11511ft 186kts
11-Nov-19 16:17 37.398255 -104.353291 175 11512ft 186kts
11-Nov-19 16:18 37.346901 -104.348734 175 11512ft 186kts
11-Nov-19 16:19 37.295443 -104.344178 175 11592ft 181kts
11-Nov-19 16:20 37.248424 -104.347035 202 12151ft 163kts
11-Nov-19 16:21 37.185366 -104.378698 206 12520ft 167kts
11-Nov-19 16:22 37.003856 -104.470965 204 12475ft 178kts
11-Nov-19 16:23 36.820626 -104.563598 204 12422ft 175kts
11-Nov-19 16:24 36.641613 -104.653782 203 12551ft 173kts
11-Nov-19 16:25 36.461787 -104.743810 203 12534ft 174kts
11-Nov-19 16:26 36.283051 -104.832836 203 12511ft 173kts
11-Nov-19 16:27 36.103795 -104.921621 204 12515ft 173kts
11-Nov-19 16:28 35.926232 -105.009228 206 12587ft 171kts
11-Nov-19 16:29 35.750913 -105.095318 207 12572ft 166kts
11-Nov-19 16:30 35.663181 -105.144762 246 12574ft 149kts
11-Nov-19 16:31 35.654229 -105.193437 266 12574ft 145kts
11-Nov-19 16:32 35.651140 -105.242978 269 12573ft 145kts
11-Nov-19 16:33 35.649099 -105.292454 269 12573ft 145kts
11-Nov-19 16:34 35.647235 -105.342008 269 12573ft 144kts
11-Nov-19 16:35 35.645391 -105.391454 269 12573ft 144kts
11-Nov-19 16:36 35.643539 -105.440735 269 12575ft 144kts
11-Nov-19 16:37 35.641663 -105.489860 269 12591ft 144kts
11-Nov-19 16:38 35.639691 -105.539111 269 12591ft 143kts
11-Nov-19 16:39 35.637794 -105.587477 269 12092ft 146kts
11-Nov-19 16:40 35.635814 -105.637488 270 11575ft 147kts
11-Nov-19 16:41 35.633224 -105.688501 267 11440ft 149kts
11-Nov-19 16:42 35.630391 -105.739176 268 11520ft 145kts
11-Nov-19 16:43 35.629915 -105.789128 269 11224ft 148kts
11-Nov-19 16:44 35.630243 -105.839506 268 10653ft 148kts
11-Nov-19 16:45 35.631278 -105.889972 267 10099ft 149kts
11-Nov-19 16:46 35.633144 -105.940994 267 9503ft 152kts
11-Nov-19 16:47 35.649393 -105.989697 298 8803ft 163kts
11-Nov-19 16:48 35.668230 -106.031131 257 7857ft 157kts
11-Nov-19 16:49 35.652186 -106.058639 200 7114ft 91kts
11-Nov-19 16:50 35.632465 -106.075504 204 6494ft 88kts
11-Nov-19 16:51 35.615164 -106.090126 213 6351ft 47kts
11-Nov-19 16:52 35.612830 -106.090515 47 6351ft 17kts
11-Nov-19 16:53 35.616509 -106.085300 122 6351ft 9kts
11-Nov-19 16:54 35.616420 -106.083496 192 6351ft 0kts
11-Nov-19 16:55 35.630947 -106.076872 201 6471ft 85kts
11-Nov-19 16:56 35.616421 -106.083496 192 6351ft 0kts
11-Nov-19 16:57 35.618619 -106.084692 125 6351ft 0kts
11-Nov-19 16:58 35.618621 -106.084696 125 6352ft 0kts
11-Nov-19 16:59 35.618621 -106.084696 125 6352ft 0kts
11-Nov-19 17:00 35.618621 -106.084696 125 6352ft 0kts
11-Nov-19 17:01 35.618621 -106.084696 125 6352ft 0kts
11-Nov-19 17:02 35.618621 -106.084696 125 6352ft 0kts
11-Nov-19 17:03 35.618527 -106.084848 311 6352ft 5kts

Navigation Log

Ident Type
Flight plan parsing failed, navigation log unavailable